createdAt,value
2022-08-17T00:01:52.300Z,23.40
2022-08-17T00:04:25.639Z,23.43
2022-08-17T00:06:55.277Z,23.45
2022-08-17T00:09:24.917Z,23.48
2022-08-17T00:12:41.356Z,23.49
2022-08-17T00:14:44.193Z,23.45
2022-08-17T00:17:13.765Z,23.45
2022-08-17T00:19:45.983Z,23.43
2022-08-17T00:22:34.399Z,23.38
2022-08-17T00:25:05.387Z,23.33
2022-08-17T00:27:34.969Z,23.34
2022-08-17T00:30:05.009Z,23.32
2022-08-17T00:33:15.777Z,23.29
2022-08-17T00:35:31.942Z,23.26
2022-08-17T00:38:01.538Z,23.29
2022-08-17T00:40:39.875Z,23.25
2022-08-17T00:43:19.164Z,23.26
2022-08-17T00:45:49.386Z,23.25
2022-08-17T00:48:29.188Z,23.23
2022-08-17T00:51:06.907Z,23.26
2022-08-17T00:53:38.631Z,23.30
2022-08-17T00:56:12.135Z,23.36
2022-08-17T00:58:42.118Z,23.44
2022-08-17T01:01:21.371Z,23.49
2022-08-17T01:03:52.150Z,23.51
2022-08-17T01:06:25.886Z,23.49
2022-08-17T01:08:57.528Z,23.46
2022-08-17T01:11:27.563Z,23.45
2022-08-17T01:13:57.178Z,23.46
2022-08-17T01:16:29.207Z,23.49
2022-08-17T01:19:01.614Z,23.48
2022-08-17T01:21:39.828Z,23.41
2022-08-17T01:24:12.629Z,23.29
2022-08-17T01:26:43.434Z,23.22
2022-08-17T01:29:13.839Z,23.21
2022-08-17T01:31:46.284Z,23.20
2022-08-17T01:34:18.247Z,23.22
2022-08-17T01:36:50.535Z,23.21
2022-08-17T01:39:31.661Z,23.19
2022-08-17T01:42:09.178Z,23.15
2022-08-17T01:44:39.915Z,23.11
2022-08-17T01:47:09.623Z,23.06
2022-08-17T01:49:39.321Z,23.05
2022-08-17T01:52:10.616Z,23.08
2022-08-17T01:54:44.759Z,23.06
2022-08-17T01:57:14.531Z,23.02
2022-08-17T01:59:44.161Z,22.98
2022-08-17T02:02:30.651Z,22.95
2022-08-17T02:05:00.796Z,22.94
2022-08-17T02:07:31.403Z,22.93
2022-08-17T02:10:03.630Z,22.86
2022-08-17T02:12:46.652Z,22.85
2022-08-17T02:15:16.505Z,22.86
2022-08-17T02:17:46.180Z,22.89
2022-08-17T02:20:16.737Z,22.92
2022-08-17T02:23:08.863Z,22.91
2022-08-17T02:25:42.501Z,22.90
2022-08-17T02:28:12.551Z,22.86
2022-08-17T02:30:59.407Z,22.78
2022-08-17T02:33:42.775Z,22.70
2022-08-17T02:36:14.683Z,22.58
2022-08-17T02:38:44.767Z,22.51
2022-08-17T02:41:16.960Z,22.48
2022-08-17T02:43:46.547Z,22.52
2022-08-17T02:46:16.174Z,22.52
2022-08-17T02:48:45.805Z,22.48
2022-08-17T02:51:15.409Z,22.39
2022-08-17T02:53:45.028Z,22.36
2022-08-17T02:56:17.345Z,22.33
2022-08-17T02:58:46.985Z,22.30
2022-08-17T03:01:16.657Z,22.29
2022-08-17T03:03:46.288Z,22.29
2022-08-17T03:06:16.712Z,22.29
2022-08-17T03:08:46.360Z,22.31
2022-08-17T03:11:18.572Z,22.30
2022-08-17T03:13:48.287Z,22.29
2022-08-17T03:16:18.995Z,22.27
2022-08-17T03:18:48.767Z,22.27
2022-08-17T03:21:18.413Z,22.24
2022-08-17T03:23:48.010Z,22.22
2022-08-17T03:26:29.737Z,22.19
2022-08-17T03:29:00.201Z,22.20
2022-08-17T03:31:29.797Z,22.18
2022-08-17T03:33:59.588Z,22.17
2022-08-17T03:36:29.718Z,22.17
2022-08-17T03:39:05.558Z,22.15
2022-08-17T03:41:37.850Z,22.13
2022-08-17T03:44:07.489Z,22.11
2022-08-17T03:46:49.551Z,22.11
2022-08-17T03:49:31.649Z,22.11
2022-08-17T03:52:13.839Z,22.11
2022-08-17T03:54:56.880Z,22.12
2022-08-17T03:57:29.890Z,22.14
2022-08-17T04:00:00.034Z,22.14
2022-08-17T04:02:32.515Z,22.09
2022-08-17T04:05:02.254Z,22.01
2022-08-17T04:07:33.669Z,21.91
2022-08-17T04:10:04.141Z,21.85
2022-08-17T04:12:46.946Z,21.83
2022-08-17T04:15:18.344Z,21.82
2022-08-17T04:17:47.956Z,21.80
2022-08-17T04:20:19.755Z,21.83
2022-08-17T04:22:59.686Z,21.83
2022-08-17T04:25:29.966Z,21.84
2022-08-17T04:28:02.808Z,21.84
2022-08-17T04:30:34.853Z,21.85
2022-08-17T04:33:08.749Z,21.85
2022-08-17T04:35:41.221Z,21.88
2022-08-17T04:38:13.093Z,21.94
2022-08-17T04:40:55.612Z,21.98
2022-08-17T04:43:29.106Z,22.05
2022-08-17T04:46:01.364Z,22.10
2022-08-17T04:48:36.963Z,22.15
2022-08-17T04:51:10.539Z,22.20
2022-08-17T04:53:41.356Z,22.27
2022-08-17T04:56:16.265Z,22.33
2022-08-17T04:58:51.236Z,22.37
2022-08-17T05:01:23.433Z,22.40
2022-08-17T05:03:54.245Z,22.41
2022-08-17T05:06:24.211Z,22.44
2022-08-17T05:08:54.300Z,22.45
2022-08-17T05:11:25.561Z,22.47
2022-08-17T05:13:58.895Z,22.50
2022-08-17T05:16:30.551Z,22.53
2022-08-17T05:19:02.603Z,22.56
2022-08-17T05:21:32.793Z,22.61
2022-08-17T05:24:03.783Z,22.67
2022-08-17T05:26:39.263Z,22.76
2022-08-17T05:29:13.857Z,22.87
2022-08-17T05:31:43.438Z,22.98
2022-08-17T05:34:13.021Z,23.09
2022-08-17T05:36:44.612Z,23.19
2022-08-17T05:39:17.443Z,23.29
2022-08-17T05:41:50.594Z,23.38
2022-08-17T05:44:22.804Z,23.46
2022-08-17T05:46:54.361Z,23.52
2022-08-17T05:49:29.015Z,23.56
2022-08-17T05:52:14.727Z,23.59
2022-08-17T05:54:58.278Z,23.61
2022-08-17T05:57:39.904Z,23.61
2022-08-17T06:00:30.699Z,23.62
2022-08-17T06:03:14.615Z,23.64
2022-08-17T06:05:54.076Z,23.67
2022-08-17T06:08:28.476Z,23.68
2022-08-17T06:11:02.371Z,23.70
2022-08-17T06:13:45.238Z,23.73
2022-08-17T06:16:33.497Z,23.77
2022-08-17T06:19:08.658Z,23.82
2022-08-17T06:21:40.974Z,23.91
2022-08-17T06:24:22.111Z,24.03
2022-08-17T06:26:51.926Z,24.04
2022-08-17T06:29:33.560Z,24.05
2022-08-17T06:32:06.821Z,24.04
2022-08-17T06:34:37.458Z,24.01
2022-08-17T06:37:14.921Z,24.01
2022-08-17T06:39:51.184Z,24.03
2022-08-17T06:43:02.597Z,24.05
2022-08-17T06:45:22.870Z,24.06
2022-08-17T06:47:58.662Z,24.08
2022-08-17T06:50:33.163Z,24.11
2022-08-17T06:53:10.012Z,24.17
2022-08-17T06:55:46.770Z,24.21
2022-08-17T06:58:17.999Z,24.25
2022-08-17T07:00:49.804Z,24.29
2022-08-17T07:03:31.775Z,24.31
2022-08-17T07:06:05.706Z,24.34
2022-08-17T07:08:45.375Z,24.45
2022-08-17T07:11:17.216Z,24.66
2022-08-17T07:13:51.770Z,24.92
2022-08-17T07:16:25.494Z,25.17
2022-08-17T07:18:57.803Z,25.32
2022-08-17T07:21:40.929Z,25.39
2022-08-17T07:24:29.805Z,25.47
2022-08-17T07:27:12.536Z,25.58
2022-08-17T07:29:48.895Z,25.62
2022-08-17T07:32:23.367Z,25.64
2022-08-17T07:35:22.087Z,25.64
2022-08-17T07:37:56.050Z,25.61
2022-08-17T07:40:33.515Z,25.58
2022-08-17T07:43:22.005Z,25.60
2022-08-17T07:46:20.312Z,25.78
2022-08-17T07:48:52.418Z,25.98
2022-08-17T07:51:33.454Z,26.19
2022-08-17T07:54:14.476Z,26.25
2022-08-17T07:56:47.096Z,26.27
2022-08-17T07:59:23.366Z,26.31
2022-08-17T08:02:06.804Z,26.38
2022-08-17T08:07:38.854Z,26.34
2022-08-17T08:10:12.282Z,26.28
2022-08-17T08:12:42.213Z,26.19
2022-08-17T08:15:19.037Z,26.13
2022-08-17T08:17:52.750Z,26.10
2022-08-17T08:20:52.168Z,26.08
2022-08-17T08:23:33.783Z,26.09
2022-08-17T08:26:18.781Z,26.15
2022-08-17T08:28:54.649Z,26.21
2022-08-17T08:31:45.650Z,26.26
2022-08-17T08:35:00.178Z,26.24
2022-08-17T08:37:25.134Z,26.17
2022-08-17T08:40:11.494Z,26.12
2022-08-17T08:42:48.956Z,26.06
2022-08-17T08:45:24.754Z,25.96
2022-08-17T08:48:05.925Z,25.85
2022-08-17T08:50:43.048Z,25.75
2022-08-17T08:53:23.517Z,25.66
2022-08-17T08:56:02.493Z,25.55
2022-08-17T08:58:41.978Z,25.43
2022-08-17T09:01:19.098Z,25.34
2022-08-17T09:04:19.673Z,25.31
2022-08-17T09:06:59.796Z,25.30
2022-08-17T09:09:38.989Z,25.31
2022-08-17T09:12:16.857Z,25.26
2022-08-17T09:14:52.466Z,25.20
2022-08-17T09:17:27.900Z,25.13
2022-08-17T09:20:00.812Z,25.04
2022-08-17T09:22:33.473Z,24.92
2022-08-17T09:25:09.949Z,24.82
2022-08-17T09:28:00.641Z,24.73
2022-08-17T09:30:36.376Z,24.69
2022-08-17T09:33:10.050Z,24.69
2022-08-17T09:35:41.671Z,24.71
2022-08-17T09:38:21.392Z,24.74
2022-08-17T09:40:56.034Z,24.75
2022-08-17T09:43:40.672Z,24.76
2022-08-17T09:46:14.220Z,24.76
2022-08-17T09:48:44.658Z,24.75
2022-08-17T09:51:18.515Z,24.71
2022-08-17T09:53:49.766Z,24.69
2022-08-17T09:56:31.860Z,24.66
2022-08-17T09:59:36.542Z,24.60
2022-08-17T10:02:29.885Z,24.50
2022-08-17T10:05:05.460Z,24.44
2022-08-17T10:07:38.263Z,24.36
2022-08-17T10:10:15.100Z,24.29
2022-08-17T10:12:53.140Z,24.27
2022-08-17T10:15:33.938Z,24.25
2022-08-17T10:18:13.754Z,24.19
2022-08-17T10:20:50.368Z,24.15
2022-08-17T10:23:39.190Z,24.10
2022-08-17T10:26:18.792Z,24.07
2022-08-17T10:28:52.722Z,24.06
2022-08-17T10:31:35.518Z,24.02
2022-08-17T10:34:27.278Z,23.95
2022-08-17T10:37:03.373Z,23.88
2022-08-17T10:39:51.960Z,23.85
2022-08-17T10:42:30.799Z,23.82
2022-08-17T10:45:06.467Z,23.82
2022-08-17T10:48:06.344Z,23.78
2022-08-17T10:50:49.790Z,23.72
2022-08-17T10:53:49.452Z,23.69
2022-08-17T10:56:24.941Z,23.71
2022-08-17T10:58:57.259Z,23.75
2022-08-17T11:02:05.359Z,23.84
2022-08-17T11:04:50.005Z,23.96
2022-08-17T11:07:28.260Z,24.11
2022-08-17T11:10:12.444Z,24.32
2022-08-17T11:12:49.276Z,24.59
2022-08-17T11:15:28.022Z,24.94
2022-08-17T11:18:24.854Z,25.42
2022-08-17T11:21:29.671Z,25.93
2022-08-17T11:24:18.418Z,26.46
2022-08-17T11:27:02.090Z,26.92
2022-08-17T11:29:32.939Z,27.39
2022-08-17T11:32:11.561Z,27.76
2022-08-17T11:34:41.818Z,27.97
2022-08-17T11:37:34.642Z,28.07
2022-08-17T11:40:25.998Z,28.10
2022-08-17T11:43:27.200Z,28.03
2022-08-17T11:46:06.460Z,27.91
2022-08-17T11:48:53.194Z,27.75
2022-08-17T11:51:37.512Z,27.63
2022-08-17T11:54:32.220Z,27.61
2022-08-17T11:57:03.435Z,27.66
2022-08-17T11:59:58.874Z,27.86
2022-08-17T12:02:38.991Z,28.17
2022-08-17T12:05:31.026Z,28.40
2022-08-17T12:08:10.783Z,28.47
2022-08-17T12:11:08.156Z,28.50
2022-08-17T12:13:41.452Z,28.60
2022-08-17T12:16:10.842Z,28.67
2022-08-17T12:18:41.933Z,28.71
2022-08-17T12:21:20.861Z,28.82
2022-08-17T12:23:57.900Z,29.04
2022-08-17T12:26:33.075Z,29.26
2022-08-17T12:29:04.538Z,29.42
2022-08-17T12:31:38.459Z,29.54
2022-08-17T12:34:07.884Z,29.54
2022-08-17T12:36:38.283Z,29.36
2022-08-17T12:39:14.011Z,29.19
2022-08-17T12:41:50.448Z,29.04
2022-08-17T12:44:22.525Z,28.89
2022-08-17T12:46:58.838Z,28.68
2022-08-17T12:49:35.537Z,28.50
2022-08-17T12:52:09.751Z,28.35
2022-08-17T12:54:45.074Z,28.15
2022-08-17T12:57:20.009Z,27.92
2022-08-17T12:59:54.371Z,27.73
2022-08-17T13:02:40.030Z,27.63
2022-08-17T13:05:12.741Z,27.56
2022-08-17T13:07:46.502Z,27.53
2022-08-17T13:10:21.849Z,27.56
2022-08-17T13:12:54.545Z,27.64
2022-08-17T13:15:29.608Z,27.70
2022-08-17T13:18:03.909Z,27.79
2022-08-17T13:20:34.141Z,27.81
2022-08-17T13:23:11.945Z,27.84
2022-08-17T13:25:42.379Z,27.97
2022-08-17T13:28:35.548Z,28.12
2022-08-17T13:31:24.158Z,28.21
2022-08-17T13:33:53.844Z,28.17
2022-08-17T13:36:29.096Z,28.17
2022-08-17T13:39:10.059Z,28.32
2022-08-17T13:41:40.609Z,28.48
2022-08-17T13:44:39.210Z,28.65
2022-08-17T13:47:17.935Z,28.72
2022-08-17T13:49:49.483Z,28.68
2022-08-17T13:52:38.469Z,28.61
2022-08-17T13:55:10.716Z,28.47
2022-08-17T13:57:40.418Z,28.41
2022-08-17T14:00:18.995Z,28.39
2022-08-17T14:02:48.601Z,28.43
2022-08-17T14:05:18.502Z,28.51
2022-08-17T14:07:48.120Z,28.56
2022-08-17T14:10:20.272Z,28.47
2022-08-17T14:12:50.259Z,28.32
2022-08-17T14:15:24.850Z,28.15
2022-08-17T14:18:14.470Z,27.93
2022-08-17T14:20:44.261Z,27.80
2022-08-17T14:23:14.528Z,27.67
2022-08-17T14:25:45.816Z,27.46
2022-08-17T14:28:15.559Z,27.28
2022-08-17T14:30:47.864Z,27.17
2022-08-17T14:33:22.544Z,27.17
2022-08-17T14:35:53.534Z,27.22
2022-08-17T14:38:23.588Z,27.27
2022-08-17T14:40:53.529Z,27.37
2022-08-17T14:43:23.282Z,27.51
2022-08-17T14:45:55.509Z,27.58
2022-08-17T14:48:25.471Z,27.63
2022-08-17T14:50:56.597Z,27.74
2022-08-17T14:53:26.233Z,27.79
2022-08-17T14:55:58.883Z,27.81
2022-08-17T14:58:29.601Z,27.77
2022-08-17T15:01:02.052Z,27.69
2022-08-17T15:03:31.805Z,27.58
2022-08-17T15:06:02.793Z,27.49
2022-08-17T15:08:32.934Z,27.45
2022-08-17T15:11:04.669Z,27.36
2022-08-17T15:13:34.304Z,27.21
2022-08-17T15:16:08.594Z,27.04
2022-08-17T15:18:41.100Z,26.89
2022-08-17T15:21:12.504Z,26.73
2022-08-17T15:23:43.609Z,26.62
2022-08-17T15:26:14.208Z,26.50
2022-08-17T15:28:43.822Z,26.39
2022-08-17T15:31:32.121Z,26.34
2022-08-17T15:34:02.765Z,26.37
2022-08-17T15:36:32.461Z,26.42
2022-08-17T15:39:03.201Z,26.43
2022-08-17T15:41:33.115Z,26.44
2022-08-17T15:44:02.921Z,26.44
2022-08-17T15:46:35.584Z,26.41
2022-08-17T15:49:06.354Z,26.38
2022-08-17T15:51:37.899Z,26.35
2022-08-17T15:54:18.767Z,26.36
2022-08-17T15:56:51.879Z,26.32
2022-08-17T15:59:21.564Z,26.27
2022-08-17T16:03:44.451Z,26.26
2022-08-17T16:04:45.326Z,26.25
2022-08-17T16:07:21.870Z,26.25
2022-08-17T16:09:54.060Z,26.24
2022-08-17T16:12:24.545Z,26.22
2022-08-17T16:14:54.497Z,26.18
2022-08-17T16:17:40.066Z,26.15
2022-08-17T16:20:20.898Z,26.12
2022-08-17T16:22:52.184Z,26.10
2022-08-17T16:25:52.169Z,26.04
2022-08-17T16:28:14.010Z,25.95
2022-08-17T16:30:44.084Z,25.91
2022-08-17T16:33:18.617Z,25.85
2022-08-17T16:35:48.246Z,25.79
2022-08-17T16:38:18.554Z,25.72
2022-08-17T16:40:48.176Z,25.64
2022-08-17T16:43:17.768Z,25.57
2022-08-17T16:45:51.854Z,25.50
2022-08-17T16:48:24.548Z,25.45
2022-08-17T16:51:03.265Z,25.37
2022-08-17T16:53:34.557Z,25.28
2022-08-17T16:56:05.139Z,25.17
2022-08-17T16:58:34.985Z,25.09
2022-08-17T17:01:05.015Z,25.00
2022-08-17T17:03:37.669Z,24.91
2022-08-17T17:06:13.666Z,24.80
2022-08-17T17:08:46.724Z,24.71
2022-08-17T17:11:18.327Z,24.63
2022-08-17T17:13:51.814Z,24.56
2022-08-17T17:16:24.110Z,24.49
2022-08-17T17:19:06.997Z,24.44
2022-08-17T17:21:42.978Z,24.38
2022-08-17T17:24:17.446Z,24.32
2022-08-17T17:26:57.207Z,24.26
2022-08-17T17:29:47.615Z,24.19
2022-08-17T17:32:22.267Z,24.12
2022-08-17T17:34:58.809Z,24.01
2022-08-17T17:37:34.154Z,23.92
2022-08-17T17:40:09.478Z,23.82
2022-08-17T17:42:42.761Z,23.74
2022-08-17T17:45:18.508Z,23.68
2022-08-17T17:47:48.717Z,23.61
2022-08-17T17:50:23.249Z,23.55
2022-08-17T17:53:02.165Z,23.48
2022-08-17T17:55:47.186Z,23.41
2022-08-17T17:58:28.302Z,23.32
2022-08-17T18:01:17.300Z,23.25
2022-08-17T18:03:58.942Z,23.19
2022-08-17T18:06:37.086Z,23.13
2022-08-17T18:09:18.013Z,23.06
2022-08-17T18:12:06.524Z,23.01
2022-08-17T18:14:49.499Z,22.95
2022-08-17T18:17:20.321Z,22.87
2022-08-17T18:19:50.160Z,22.81
2022-08-17T18:22:24.058Z,22.75
2022-08-17T18:24:56.465Z,22.70
2022-08-17T18:27:31.480Z,22.63
2022-08-17T18:30:05.850Z,22.55
2022-08-17T18:32:41.461Z,22.46
2022-08-17T18:35:30.365Z,22.36
2022-08-17T18:38:23.338Z,22.24
2022-08-17T18:41:02.275Z,22.13
2022-08-17T18:43:44.251Z,22.03
2022-08-17T18:46:29.987Z,21.93
2022-08-17T18:49:02.188Z,21.84
2022-08-17T18:51:40.557Z,21.75
2022-08-17T18:54:23.709Z,21.67
2022-08-17T18:56:55.970Z,21.59
2022-08-17T18:59:29.597Z,21.52
2022-08-17T19:02:37.276Z,21.44
2022-08-17T19:05:14.226Z,21.35
2022-08-17T19:07:45.620Z,21.29
2022-08-17T19:10:28.788Z,21.23
2022-08-17T19:13:01.122Z,21.18
2022-08-17T19:15:36.753Z,21.11
2022-08-17T19:18:15.247Z,21.06
2022-08-17T19:20:48.608Z,20.99
2022-08-17T19:23:21.527Z,20.90
2022-08-17T19:25:58.429Z,20.84
2022-08-17T19:28:31.167Z,20.77
2022-08-17T19:31:03.556Z,20.70
2022-08-17T19:33:34.059Z,20.62
2022-08-17T19:36:09.158Z,20.56
2022-08-17T19:38:45.411Z,20.52
2022-08-17T19:41:23.282Z,20.46
2022-08-17T19:44:29.611Z,20.41
2022-08-17T19:47:06.100Z,20.35
2022-08-17T19:49:45.658Z,20.32
2022-08-17T19:52:34.553Z,20.28
2022-08-17T19:55:08.746Z,20.23
2022-08-17T19:57:46.930Z,20.19
2022-08-17T20:00:18.892Z,20.14
2022-08-17T20:02:53.970Z,20.10
2022-08-17T20:05:27.118Z,20.06
2022-08-17T20:07:59.642Z,20.02
2022-08-17T20:10:34.811Z,19.96
2022-08-17T20:13:11.888Z,19.91
2022-08-17T20:15:44.567Z,19.86
2022-08-17T20:18:21.182Z,19.81
2022-08-17T20:20:57.502Z,19.77
2022-08-17T20:23:42.342Z,19.76
2022-08-17T20:26:30.654Z,19.73
2022-08-17T20:29:36.801Z,19.70
2022-08-17T20:32:18.182Z,19.66
2022-08-17T20:34:49.425Z,19.60
2022-08-17T20:37:32.007Z,19.56
2022-08-17T20:40:20.624Z,19.50
2022-08-17T20:42:50.551Z,19.42
2022-08-17T20:45:52.715Z,19.37
2022-08-17T20:48:37.356Z,19.30
2022-08-17T20:51:29.889Z,19.27
2022-08-17T20:54:06.902Z,19.23
2022-08-17T20:56:51.771Z,19.21
2022-08-17T20:59:52.310Z,19.17
2022-08-17T21:02:27.603Z,19.13
2022-08-17T21:05:17.471Z,19.10
2022-08-17T21:07:58.697Z,19.06
2022-08-17T21:10:36.826Z,19.02
2022-08-17T21:13:39.268Z,18.98
2022-08-17T21:16:24.277Z,18.92
2022-08-17T21:19:07.568Z,18.89
2022-08-17T21:21:43.938Z,18.85
2022-08-17T21:24:28.645Z,18.83
2022-08-17T21:27:08.384Z,18.80
2022-08-17T21:29:54.611Z,18.77
2022-08-17T21:32:31.422Z,18.72
2022-08-17T21:35:30.135Z,18.69
2022-08-17T21:38:05.255Z,18.64
2022-08-17T21:40:36.450Z,18.59
2022-08-17T21:43:18.106Z,18.56
2022-08-17T21:45:58.719Z,18.54
2022-08-17T21:48:29.703Z,18.51
2022-08-17T21:51:11.009Z,18.50
2022-08-17T21:53:46.391Z,18.46
2022-08-17T21:56:24.348Z,18.44
2022-08-17T21:58:59.155Z,18.43
2022-08-17T22:01:31.673Z,18.42
2022-08-17T22:04:05.057Z,18.41
2022-08-17T22:06:41.806Z,18.38
2022-08-17T22:09:18.456Z,18.35
2022-08-17T22:12:04.025Z,18.36
2022-08-17T22:14:52.629Z,18.36
2022-08-17T22:17:25.466Z,18.38
2022-08-17T22:19:58.098Z,18.37
2022-08-17T22:23:02.533Z,18.35
2022-08-17T22:25:31.156Z,18.30
2022-08-17T22:28:02.406Z,18.27
2022-08-17T22:30:35.882Z,18.26
2022-08-17T22:33:32.429Z,18.23
2022-08-17T22:36:13.584Z,18.18
2022-08-17T22:38:45.805Z,18.13
2022-08-17T22:41:40.523Z,18.07
2022-08-17T22:44:18.009Z,18.01
2022-08-17T22:46:55.343Z,17.98
2022-08-17T22:49:29.205Z,17.95
2022-08-17T22:52:06.389Z,17.91
2022-08-17T22:54:51.151Z,17.89
2022-08-17T22:57:33.606Z,17.89
2022-08-17T23:00:03.383Z,17.89
2022-08-17T23:02:34.828Z,17.91
2022-08-17T23:05:22.853Z,17.92
2022-08-17T23:07:54.854Z,17.90
2022-08-17T23:10:27.087Z,17.88
2022-08-17T23:12:57.017Z,17.86
2022-08-17T23:15:32.824Z,17.86
2022-08-17T23:18:05.377Z,17.83
2022-08-17T23:20:37.231Z,17.81
2022-08-17T23:23:07.314Z,17.77
2022-08-17T23:25:39.761Z,17.76
2022-08-17T23:28:11.370Z,17.77
2022-08-17T23:30:43.350Z,17.75
2022-08-17T23:33:24.438Z,17.73
2022-08-17T23:35:54.246Z,17.70
2022-08-17T23:38:25.450Z,17.69
2022-08-17T23:40:59.939Z,17.68
2022-08-17T23:43:31.424Z,17.66
2022-08-17T23:46:03.644Z,17.65
2022-08-17T23:48:36.926Z,17.62
2022-08-17T23:51:09.623Z,17.59
2022-08-17T23:53:42.526Z,17.59
2022-08-17T23:56:15.119Z,17.61
2022-08-17T23:58:46.353Z,17.62
